Time;durP1;ratioP1;P1;durP2;ratioP2;P2;SDS_P1;SDS_P2;PMS_P1;PMS_P2;Temp;Humidity;BMP_temperature;BMP_pressure;BME280_temperature;BME280_humidity;BME280_pressure;Samples;Min_cycle;Max_cycle;Signal;HPM_P1;HPM_P2
2023/10/01 00:02:09;;;;;;;9.13;3.63;;;15.00;99.90;;;;;;5074684;28;20035;-48
2023/10/01 00:04:35;;;;;;;11.75;4.25;;;15.00;99.90;;;;;;5092718;28;20112;-50
2023/10/01 00:07:01;;;;;;;8.40;3.60;;;15.00;99.90;;;;;;5092917;28;20043;-49
2023/10/01 00:09:27;;;;;;;10.65;4.15;;;15.00;99.90;;;;;;5092613;28;20050;-51
2023/10/01 00:11:53;;;;;;;10.13;4.20;;;15.00;99.90;;;;;;5090980;28;20135;-49
2023/10/01 00:14:20;;;;;;;12.00;4.50;;;15.00;99.90;;;;;;5092233;28;20059;-49
2023/10/01 00:16:45;;;;;;;12.05;4.13;;;15.00;99.90;;;;;;5092478;28;20118;-48
2023/10/01 00:19:11;;;;;;;14.75;4.72;;;15.00;99.90;;;;;;5092576;28;20415;-51
2023/10/01 00:21:37;;;;;;;17.05;4.32;;;15.00;99.90;;;;;;5092318;28;20493;-51
2023/10/01 00:24:02;;;;;;;10.82;4.68;;;15.00;99.90;;;;;;5074387;28;20028;-47
2023/10/01 00:26:28;;;;;;;10.88;4.35;;;15.00;99.90;;;;;;5092274;28;20036;-48
2023/10/01 00:28:54;;;;;;;17.20;4.60;;;15.00;99.90;;;;;;5092021;28;20123;-47
2023/10/01 00:31:19;;;;;;;10.65;3.70;;;14.90;99.90;;;;;;5092578;28;20071;-50
2023/10/01 00:33:48;;;;;;;10.70;4.30;;;14.90;99.90;;;;;;5092379;28;20496;-51
2023/10/01 00:36:14;;;;;;;19.30;4.85;;;15.00;99.90;;;;;;5091582;28;20039;-50
2023/10/01 00:38:39;;;;;;;15.65;5.22;;;15.00;99.90;;;;;;5092520;28;20393;-49
2023/10/01 00:41:08;;;;;;;11.90;4.85;;;15.00;99.90;;;;;;5092307;28;20040;-50
2023/10/01 00:43:35;;;;;;;10.73;5.28;;;14.90;99.90;;;;;;5092102;28;20042;-49
2023/10/01 00:46:03;;;;;;;11.25;4.82;;;15.00;99.90;;;;;;5074135;28;20184;-51
2023/10/01 00:48:30;;;;;;;12.20;4.65;;;15.00;99.90;;;;;;5073996;28;20489;-50
2023/10/01 00:50:57;;;;;;;14.95;5.32;;;14.90;99.90;;;;;;5073797;28;20055;-47
2023/10/01 00:53:23;;;;;;;12.43;5.75;;;14.90;99.90;;;;;;5074014;28;20036;-50
2023/10/01 00:55:53;;;;;;;11.77;5.68;;;14.90;99.90;;;;;;5092062;28;20614;-49
2023/10/01 00:58:19;;;;;;;12.02;5.38;;;14.90;99.90;;;;;;5092113;28;20112;-49
2023/10/01 01:00:49;;;;;;;12.85;6.60;;;14.90;99.90;;;;;;5091912;28;20036;-48
2023/10/01 01:03:22;;;;;;;15.68;6.38;;;14.90;99.90;;;;;;5091646;28;20023;-49
2023/10/01 01:06:36;;;;;;;13.27;5.65;;;14.90;99.90;;;;;;5091935;28;20074;-51
2023/10/01 01:08:46;;;;;;;14.32;6.30;;;14.90;99.90;;;;;;5083273;28;20040;-49
2023/10/01 01:11:15;;;;;;;17.88;6.85;;;15.00;99.90;;;;;;5092016;28;20099;-48
2023/10/01 01:13:43;;;;;;;14.70;6.57;;;14.90;99.90;;;;;;5073701;28;20048;-48
2023/10/01 01:16:10;;;;;;;11.95;6.57;;;14.90;99.90;;;;;;5091593;28;20047;-47
2023/10/01 01:18:36;;;;;;;16.52;6.53;;;14.90;99.90;;;;;;5091623;28;20119;-49
2023/10/01 01:21:09;;;;;;;15.65;6.80;;;14.90;99.90;;;;;;5091368;28;20138;-47
2023/10/01 01:23:35;;;;;;;14.32;7.47;;;14.90;99.90;;;;;;5091461;28;20481;-52
2023/10/01 01:26:02;;;;;;;14.93;6.85;;;14.90;99.90;;;;;;5091641;28;20036;-49
2023/10/01 01:28:30;;;;;;;17.75;8.05;;;14.90;99.90;;;;;;5091533;28;20097;-52
2023/10/01 01:30:58;;;;;;;16.30;7.47;;;14.90;99.90;;;;;;5091615;28;20044;-48
2023/10/01 01:33:31;;;;;;;23.60;7.57;;;14.90;99.90;;;;;;5073517;28;20173;-50
2023/10/01 01:36:05;;;;;;;14.25;6.93;;;14.90;99.90;;;;;;5073710;28;20052;-48
2023/10/01 01:38:37;;;;;;;18.33;8.45;;;14.90;99.90;;;;;;5073500;28;20044;-49
2023/10/01 01:41:06;;;;;;;15.63;8.20;;;14.90;99.90;;;;;;5091601;28;20029;-49
2023/10/01 01:43:31;;;;;;;17.10;8.20;;;14.90;99.90;;;;;;5091307;28;20036;-48
2023/10/01 01:46:08;;;;;;;18.98;7.80;;;14.90;99.90;;;;;;5091186;28;20032;-49
2023/10/01 01:48:40;;;;;;;15.65;7.90;;;14.90;99.90;;;;;;5077325;28;20078;-49
2023/10/01 01:51:06;;;;;;;23.10;8.98;;;14.90;99.90;;;;;;5095674;28;20076;-47
2023/10/01 01:53:34;;;;;;;17.17;8.77;;;14.90;99.90;;;;;;5095664;28;20055;-48
2023/10/01 01:56:04;;;;;;;20.67;8.90;;;14.90;99.90;;;;;;5095887;28;20035;-48
2023/10/01 01:58:32;;;;;;;20.85;9.55;;;14.90;99.90;;;;;;5095235;28;20355;-49
2023/10/01 02:01:01;;;;;;;17.77;9.73;;;14.80;99.90;;;;;;5094856;28;20041;-48
2023/10/01 02:03:33;;;;;;;19.10;9.13;;;14.90;99.90;;;;;;5095237;28;20477;-48
2023/10/01 02:06:00;;;;;;;15.93;9.50;;;14.80;99.90;;;;;;5095167;28;20093;-49
2023/10/01 02:11:18;;;;;;;15.70;8.40;;;14.80;99.90;;;;;;5000640;28;20483;-48
2023/10/01 02:13:50;;;;;;;19.13;9.98;;;14.80;99.90;;;;;;5032542;28;20499;-49
2023/10/01 02:16:18;;;;;;;18.90;9.93;;;14.90;99.90;;;;;;5016084;28;20053;-48
2023/10/01 02:18:56;;;;;;;19.20;9.80;;;14.80;99.90;;;;;;5032686;28;20143;-49
2023/10/01 02:21:44;;;;;;;18.25;10.07;;;14.80;99.90;;;;;;5032283;28;20539;-50
2023/10/01 02:24:14;;;;;;;17.85;9.70;;;14.80;99.90;;;;;;5032465;28;20029;-46
2023/10/01 02:26:41;;;;;;;16.25;9.52;;;14.80;99.90;;;;;;5032279;28;20063;-49
2023/10/01 02:29:09;;;;;;;21.95;10.57;;;14.80;99.90;;;;;;5032362;28;20505;-47
2023/10/01 02:31:35;;;;;;;15.32;9.10;;;14.80;99.90;;;;;;5032416;28;20486;-50
2023/10/01 02:34:01;;;;;;;18.60;10.32;;;14.80;99.90;;;;;;5015496;28;20079;-49
2023/10/01 02:36:30;;;;;;;20.80;9.57;;;14.80;99.90;;;;;;5032150;28;20057;-49
2023/10/01 02:38:56;;;;;;;25.00;10.82;;;14.80;99.90;;;;;;5032010;28;20112;-51
2023/10/01 02:41:25;;;;;;;19.90;9.45;;;14.80;99.90;;;;;;5032096;28;20125;-51
2023/10/01 02:43:55;;;;;;;20.65;10.82;;;14.80;99.90;;;;;;5031976;28;20188;-49
2023/10/01 02:46:27;;;;;;;21.60;10.48;;;14.80;99.90;;;;;;5048512;28;20045;-47
2023/10/01 02:48:59;;;;;;;20.73;10.85;;;14.80;99.90;;;;;;5061713;28;20055;-47
2023/10/01 02:51:38;;;;;;;18.52;10.05;;;14.70;99.90;;;;;;5094240;28;20512;-48
2023/10/01 02:54:11;;;;;;;21.20;10.75;;;14.80;99.90;;;;;;5094159;28;20528;-49
2023/10/01 02:56:52;;;;;;;24.55;10.23;;;14.80;99.90;;;;;;5094260;28;20077;-48
2023/10/01 02:59:18;;;;;;;16.90;10.32;;;14.80;99.90;;;;;;5092896;28;20466;-49
2023/10/01 03:01:48;;;;;;;23.80;10.77;;;14.80;99.90;;;;;;5094105;28;20524;-50
2023/10/01 03:04:15;;;;;;;22.25;10.15;;;14.80;99.90;;;;;;5094205;28;20028;-50
2023/10/01 03:06:55;;;;;;;20.40;10.55;;;14.80;99.90;;;;;;5094501;28;20048;-49
2023/10/01 03:09:39;;;;;;;17.27;9.63;;;14.80;99.90;;;;;;5093824;28;20044;-48
2023/10/01 03:15:23;;;;;;;19.80;10.73;;;14.80;99.90;;;;;;5075388;28;20040;-46
2023/10/01 03:17:56;;;;;;;23.83;10.70;;;14.80;99.90;;;;;;5093460;28;20047;-49
2023/10/01 03:25:57;;;;;;;20.80;9.65;;;14.80;99.90;;;;;;5093630;28;20036;-48
2023/10/01 03:28:26;;;;;;;21.58;9.63;;;14.80;99.90;;;;;;5075721;28;20374;-49
2023/10/01 03:31:08;;;;;;;19.50;9.75;;;14.80;99.90;;;;;;5093900;28;20128;-48
2023/10/01 03:33:38;;;;;;;20.10;10.40;;;14.80;99.90;;;;;;5075384;28;20094;-49
2023/10/01 03:36:11;;;;;;;20.60;10.02;;;14.80;99.90;;;;;;5074604;28;20048;-49
2023/10/01 03:38:44;;;;;;;19.40;9.07;;;14.80;99.90;;;;;;5093202;28;20051;-50
2023/10/01 03:41:20;;;;;;;16.98;10.27;;;14.80;99.90;;;;;;5093440;28;20032;-51
2023/10/01 03:43:47;;;;;;;20.75;8.85;;;14.80;99.90;;;;;;5093285;28;20427;-47
2023/10/01 03:46:15;;;;;;;17.33;9.45;;;14.80;99.90;;;;;;5075149;28;20107;-48
2023/10/01 03:49:33;;;;;;;17.90;10.50;;;14.80;99.90;;;;;;5075065;28;20075;-50
2023/10/01 03:51:58;;;;;;;17.10;10.15;;;14.80;99.90;;;;;;5084246;28;20114;-48
2023/10/01 03:54:51;;;;;;;17.35;9.55;;;14.80;99.90;;;;;;5092931;28;20032;-49
2023/10/01 03:57:17;;;;;;;15.15;9.30;;;14.90;99.90;;;;;;5092861;28;20120;-47
2023/10/01 03:59:53;;;;;;;19.92;9.73;;;14.80;99.90;;;;;;5092962;28;20090;-50
2023/10/01 04:05:21;;;;;;;17.67;9.10;;;14.90;99.90;;;;;;5081163;28;20046;-49
2023/10/01 04:07:47;;;;;;;16.90;9.70;;;14.90;99.90;;;;;;5092713;28;20051;-48
2023/10/01 04:10:14;;;;;;;16.80;9.70;;;14.90;99.90;;;;;;5092790;28;20047;-47
2023/10/01 04:12:44;;;;;;;15.90;9.68;;;14.90;99.90;;;;;;5092362;28;20048;-52
2023/10/01 04:15:22;;;;;;;16.20;9.63;;;14.90;99.90;;;;;;5092607;28;20134;-49
2023/10/01 04:18:09;;;;;;;17.42;9.43;;;14.90;99.90;;;;;;5092365;28;20050;-48
2023/10/01 04:20:33;;;;;;;14.52;9.65;;;15.00;99.90;;;;;;5092382;28;20552;-47
2023/10/01 04:23:04;;;;;;;16.60;9.05;;;14.90;99.90;;;;;;5093021;28;20047;-50
2023/10/01 04:25:36;;;;;;;16.45;9.50;;;14.90;99.90;;;;;;5074268;28;20073;-51
2023/10/01 04:28:05;;;;;;;15.77;9.63;;;14.90;99.90;;;;;;5092542;28;20032;-47
2023/10/01 04:30:34;;;;;;;;;;;14.90;99.90;;;;;;5092636;28;20028;-47
2023/10/01 04:33:16;;;;;;;19.05;9.95;;;14.90;99.90;;;;;;5092183;28;19923;-49
2023/10/01 04:35:51;;;;;;;18.33;9.05;;;15.00;99.90;;;;;;5074118;28;20111;-48
2023/10/01 04:38:19;;;;;;;17.85;9.52;;;14.90;99.90;;;;;;5074108;28;20048;-48
2023/10/01 04:40:46;;;;;;;16.85;9.52;;;15.00;99.90;;;;;;5091870;28;20036;-48
2023/10/01 04:43:16;;;;;;;15.75;9.50;;;14.90;99.90;;;;;;5092075;28;20496;-47
2023/10/01 04:45:44;;;;;;;17.85;9.23;;;15.00;99.90;;;;;;5092000;28;20039;-48
2023/10/01 04:48:17;;;;;;;17.27;10.00;;;14.90;99.90;;;;;;5092026;28;20035;-50
2023/10/01 04:50:46;;;;;;;16.63;9.60;;;14.90;99.90;;;;;;5091848;28;20306;-49
2023/10/01 04:53:15;;;;;;;16.85;9.52;;;14.90;99.90;;;;;;5091997;28;20054;-49
2023/10/01 04:55:42;;;;;;;17.30;10.18;;;14.90;99.90;;;;;;5091762;28;20063;-49
2023/10/01 04:58:16;;;;;;;17.35;9.73;;;14.90;99.90;;;;;;5091993;28;20047;-50
2023/10/01 05:00:47;;;;;;;14.63;9.13;;;14.90;99.90;;;;;;5091882;28;20036;-48
2023/10/01 05:03:15;;;;;;;16.92;9.45;;;14.90;99.90;;;;;;5091796;28;20500;-50
2023/10/01 05:05:42;;;;;;;;;;;14.90;99.90;;;;;;5092588;28;20083;-49
2023/10/01 05:08:18;;;;;;;16.98;10.20;;;14.90;99.90;;;;;;5091765;28;20008;-52
2023/10/01 05:10:52;;;;;;;17.65;10.18;;;14.90;99.90;;;;;;5091544;28;20047;-50
2023/10/01 05:13:20;;;;;;;16.63;9.73;;;14.90;99.90;;;;;;5091729;28;20050;-49
2023/10/01 05:15:51;;;;;;;19.50;9.25;;;14.90;99.90;;;;;;5073646;28;20413;-47
2023/10/01 05:18:17;;;;;;;20.60;9.95;;;14.90;99.90;;;;;;5091639;28;20051;-47
2023/10/01 05:20:44;;;;;;;15.85;9.80;;;14.90;99.90;;;;;;5091344;28;20040;-47
2023/10/01 05:23:09;;;;;;;14.43;9.90;;;14.90;99.90;;;;;;5072647;28;20398;-48
2023/10/01 05:25:35;;;;;;;16.63;10.23;;;14.90;99.90;;;;;;5091414;28;20036;-53
2023/10/01 05:28:03;;;;;;;17.80;10.27;;;14.90;99.90;;;;;;5091622;28;20043;-48
2023/10/01 05:30:36;;;;;;;24.53;10.20;;;14.80;99.90;;;;;;5091392;28;20492;-48
2023/10/01 05:33:05;;;;;;;19.33;9.88;;;14.80;99.90;;;;;;5091535;28;20044;-51
2023/10/01 05:35:35;;;;;;;19.80;10.57;;;14.80;99.90;;;;;;5091537;28;20088;-49
2023/10/01 05:38:04;;;;;;;19.52;10.25;;;14.80;99.90;;;;;;5073588;28;20405;-48
2023/10/01 05:40:34;;;;;;;16.55;10.10;;;14.80;99.90;;;;;;5091412;28;20043;-47
2023/10/01 05:43:12;;;;;;;17.20;10.00;;;14.80;99.90;;;;;;5091080;28;20150;-48
2023/10/01 05:45:41;;;;;;;19.83;10.35;;;14.70;99.90;;;;;;5091387;28;20397;-47
2023/10/01 05:48:18;;;;;;;17.95;9.45;;;14.70;99.90;;;;;;5091274;28;20043;-49
2023/10/01 05:50:45;;;;;;;16.08;9.82;;;14.70;99.90;;;;;;5073355;28;20161;-49
2023/10/01 05:53:13;;;;;;;20.15;9.80;;;14.70;99.90;;;;;;5091294;28;20029;-46
2023/10/01 05:55:39;;;;;;;17.63;9.10;;;14.70;99.90;;;;;;5091321;28;20111;-52
2023/10/01 05:58:16;;;;;;;15.20;9.40;;;14.70;99.90;;;;;;5091094;28;20358;-49
2023/10/01 06:00:53;;;;;;;18.75;9.85;;;14.70;99.90;;;;;;5091330;28;20048;-49
2023/10/01 06:03:19;;;;;;;15.25;8.98;;;14.70;99.90;;;;;;5073234;28;20035;-49
2023/10/01 06:05:57;;;;;;;16.98;9.23;;;14.80;99.90;;;;;;5091242;28;20051;-49
2023/10/01 06:08:32;;;;;;;17.05;8.80;;;14.70;99.90;;;;;;5091034;28;20040;-51
2023/10/01 06:11:06;;;;;;;13.10;8.35;;;14.70;99.90;;;;;;5091157;28;20048;-50
2023/10/01 06:13:35;;;;;;;19.60;9.32;;;14.70;99.90;;;;;;5091165;28;20052;-50
2023/10/01 06:16:11;;;;;;;18.67;9.25;;;14.70;99.90;;;;;;5091093;28;20405;-51
2023/10/01 06:18:41;;;;;;;14.57;8.75;;;14.80;99.90;;;;;;5091533;28;20040;-50
2023/10/01 06:21:11;;;;;;;14.52;9.25;;;14.70;99.90;;;;;;5084187;28;20538;-50
2023/10/01 06:23:51;;;;;;;17.90;9.38;;;14.80;99.90;;;;;;5090932;28;20504;-46
2023/10/01 06:26:29;;;;;;;14.68;9.00;;;14.70;99.90;;;;;;5090772;28;20442;-56
2023/10/01 06:28:57;;;;;;;17.08;9.60;;;14.80;99.90;;;;;;5090793;28;20503;-48
2023/10/01 06:31:27;;;;;;;15.50;8.75;;;14.80;99.90;;;;;;5090986;28;20040;-50
2023/10/01 06:33:53;;;;;;;18.52;9.63;;;14.80;99.90;;;;;;5092087;28;20044;-51
2023/10/01 06:36:21;;;;;;;15.32;9.55;;;14.80;99.90;;;;;;5094810;28;20382;-49
2023/10/01 06:38:53;;;;;;;17.35;10.77;;;14.80;99.90;;;;;;5094406;28;20119;-47
2023/10/01 06:41:25;;;;;;;20.65;9.70;;;14.80;99.90;;;;;;5094425;28;20498;-48
2023/10/01 06:43:56;;;;;;;15.63;9.70;;;14.80;99.90;;;;;;5094069;28;20036;-50
2023/10/01 06:46:27;;;;;;;16.80;8.57;;;14.90;99.90;;;;;;5094077;28;20043;-48
2023/10/01 06:48:59;;;;;;;16.25;9.55;;;14.90;99.90;;;;;;5093849;28;20097;-47
2023/10/01 06:51:27;;;;;;;17.20;9.07;;;14.90;99.90;;;;;;5094260;28;20070;-50
2023/10/01 06:54:07;;;;;;;15.82;8.57;;;15.00;99.90;;;;;;5075442;28;20055;-48
2023/10/01 06:56:36;;;;;;;18.35;9.85;;;15.00;99.90;;;;;;5094034;28;20040;-50
2023/10/01 07:01:46;;;;;;;16.85;8.38;;;15.00;99.90;;;;;;5094171;28;20047;-52
2023/10/01 07:04:23;;;;;;;22.83;9.48;;;15.10;99.90;;;;;;5093577;28;20036;-50
2023/10/01 07:06:50;;;;;;;16.88;8.90;;;15.10;99.90;;;;;;5094097;28;20381;-51
2023/10/01 07:09:24;;;;;;;19.95;8.98;;;15.20;99.90;;;;;;5093803;28;20389;-48
2023/10/01 07:11:58;;;;;;;17.27;8.65;;;15.20;99.90;;;;;;5093594;28;20086;-50
2023/10/01 07:14:43;;;;;;;16.98;8.75;;;15.30;99.90;;;;;;5093594;28;20149;-49
2023/10/01 07:17:15;;;;;;;12.95;7.80;;;15.30;99.90;;;;;;5093630;28;20500;-48
2023/10/01 07:19:42;;;;;;;19.23;9.27;;;15.40;99.90;;;;;;5093377;28;20047;-50
2023/10/01 07:22:11;;;;;;;21.67;8.93;;;15.40;99.90;;;;;;5093695;28;20028;-49
2023/10/01 07:24:38;;;;;;;24.25;9.63;;;15.40;99.90;;;;;;5093736;28;20107;-52
2023/10/01 07:27:11;;;;;;;14.85;8.13;;;15.40;99.90;;;;;;5093425;28;20107;-49
2023/10/01 07:29:42;;;;;;;18.35;8.60;;;15.50;99.90;;;;;;5093413;28;20448;-48
2023/10/01 07:32:14;;;;;;;18.08;8.07;;;15.50;99.90;;;;;;5093553;28;20101;-48
2023/10/01 07:34:45;;;;;;;18.98;8.40;;;15.50;99.90;;;;;;5093200;28;20039;-48
2023/10/01 07:37:23;;;;;;;16.70;8.25;;;15.50;99.90;;;;;;5093090;28;20059;-49
2023/10/01 07:40:08;;;;;;;20.73;9.02;;;15.60;99.90;;;;;;5093281;28;20378;-50
2023/10/01 07:42:46;;;;;;;21.38;8.55;;;15.50;99.90;;;;;;5092979;28;20093;-52
2023/10/01 07:45:17;;;;;;;18.52;7.78;;;15.60;99.90;;;;;;5092218;28;20047;-51
2023/10/01 07:47:50;;;;;;;18.38;8.15;;;15.60;99.90;;;;;;5093072;28;20047;-50
2023/10/01 07:50:18;;;;;;;15.18;7.68;;;15.60;99.90;;;;;;5092882;28;20413;-49
2023/10/01 07:53:03;;;;;;;16.85;8.18;;;15.60;99.90;;;;;;5092125;28;20405;-52
2023/10/01 07:55:37;;;;;;;13.93;7.45;;;15.60;99.90;;;;;;5092908;28;20071;-48
2023/10/01 07:58:25;;;;;;;24.15;8.27;;;15.60;99.90;;;;;;5092453;28;20105;-51
2023/10/01 08:01:32;;;;;;;19.60;9.32;;;15.60;99.90;;;;;;5092848;28;20115;-49
2023/10/01 08:03:55;;;;;;;17.40;8.10;;;15.70;99.90;;;;;;5082614;28;20044;-49
2023/10/01 08:06:42;;;;;;;17.45;8.25;;;15.70;99.90;;;;;;5092965;28;20097;-50
2023/10/01 08:09:12;;;;;;;18.00;8.07;;;15.60;99.90;;;;;;5074464;28;20101;-52
2023/10/01 08:14:33;;;;;;;18.88;7.85;;;15.70;99.90;;;;;;5092083;28;20082;-48
2023/10/01 08:17:08;;;;;;;17.80;7.55;;;15.60;99.90;;;;;;5092328;28;20056;-50
2023/10/01 08:19:49;;;;;;;13.35;7.78;;;15.70;99.90;;;;;;5092466;28;20051;-51
2023/10/01 08:22:23;;;;;;;19.55;8.05;;;15.70;99.90;;;;;;5092450;28;20040;-47
2023/10/01 08:24:54;;;;;;;14.27;7.93;;;15.80;99.90;;;;;;5092589;28;20039;-49
2023/10/01 08:27:34;;;;;;;19.05;8.55;;;15.80;99.90;;;;;;5078341;28;20246;-50
2023/10/01 08:30:19;;;;;;;17.02;8.55;;;15.80;99.90;;;;;;5092150;28;20125;-47
2023/10/01 08:32:53;;;;;;;19.42;8.18;;;15.90;99.90;;;;;;5080586;28;20123;-48
2023/10/01 08:35:34;;;;;;;15.35;8.15;;;15.90;99.90;;;;;;5092337;28;20067;-48
2023/10/01 08:38:15;;;;;;;17.20;8.30;;;15.90;99.90;;;;;;5090569;28;20566;-50
2023/10/01 08:40:43;;;;;;;17.88;7.47;;;15.90;99.90;;;;;;5091851;28;20519;-49
2023/10/01 08:43:17;;;;;;;15.60;7.50;;;16.00;99.90;;;;;;5073120;28;20087;-50
2023/10/01 08:45:47;;;;;;;18.75;8.23;;;16.10;99.90;;;;;;5092254;28;20262;-48
2023/10/01 08:48:17;;;;;;;18.77;9.50;;;16.10;99.90;;;;;;5092172;28;20036;-47
2023/10/01 08:50:47;;;;;;;17.42;7.85;;;16.20;99.90;;;;;;5091836;28;20481;-51
2023/10/01 08:53:17;;;;;;;17.85;8.65;;;16.20;99.90;;;;;;5091999;28;20032;-53
2023/10/01 08:58:25;;;;;;;14.90;7.63;;;16.30;99.90;;;;;;5091460;28;20485;-48
2023/10/01 09:01:14;;;;;;;17.33;7.68;;;16.40;99.90;;;;;;5091717;28;20489;-47
2023/10/01 09:03:47;;;;;;;15.30;8.43;;;16.60;99.90;;;;;;5091735;28;20032;-50
2023/10/01 09:06:26;;;;;;;18.38;7.50;;;16.70;99.90;;;;;;5091512;28;20099;-49
2023/10/01 09:09:01;;;;;;;17.88;8.40;;;16.70;99.90;;;;;;5075139;28;20035;-50
2023/10/01 09:11:36;;;;;;;14.75;7.32;;;16.70;99.90;;;;;;5091502;28;20040;-50
2023/10/01 09:14:18;;;;;;;17.75;7.80;;;16.80;99.90;;;;;;5091431;28;20130;-48
2023/10/01 09:16:58;;;;;;;18.20;7.20;;;17.00;99.90;;;;;;5091625;28;20036;-48
2023/10/01 09:19:44;;;;;;;17.35;7.07;;;17.20;99.90;;;;;;5091424;28;20118;-51
2023/10/01 09:25:21;;;;;;;18.85;7.45;;;17.60;99.90;;;;;;5091344;28;20040;-52
2023/10/01 09:28:19;;;;;;;17.52;7.63;;;17.80;99.90;;;;;;5091408;28;20039;-50
2023/10/01 09:33:51;;;;;;;22.80;8.00;;;18.10;99.90;;;;;;5091486;28;20039;-49
2023/10/01 09:36:45;;;;;;;20.63;8.35;;;18.20;99.90;;;;;;5091281;28;20043;-47
2023/10/01 09:39:22;;;;;;;18.48;8.18;;;18.30;99.90;;;;;;5056537;28;20059;-49
2023/10/01 09:41:55;;;;;;;18.80;8.18;;;18.30;99.90;;;;;;5091002;28;20036;-51
2023/10/01 09:44:26;;;;;;;17.25;7.47;;;18.40;99.90;;;;;;5090957;28;20489;-52
2023/10/01 09:47:07;;;;;;;17.63;7.97;;;18.40;99.90;;;;;;5091100;28;20040;-50
2023/10/01 09:49:38;;;;;;;19.42;8.00;;;18.50;99.90;;;;;;5058396;28;20117;-47
2023/10/01 09:52:10;;;;;;;26.35;8.95;;;18.60;99.90;;;;;;5091097;28;20057;-49
2023/10/01 09:54:43;;;;;;;19.10;8.43;;;18.60;99.90;;;;;;5089902;28;20048;-51
2023/10/01 09:57:12;;;;;;;22.00;8.38;;;18.60;99.90;;;;;;5091324;28;20111;-49
2023/10/01 09:59:42;;;;;;;20.83;8.07;;;18.70;99.90;;;;;;5089703;28;20059;-51
2023/10/01 10:02:12;;;;;;;17.80;8.70;;;18.70;99.90;;;;;;5089767;28;20040;-49
2023/10/01 10:04:41;;;;;;;19.75;8.25;;;18.70;99.90;;;;;;5072274;28;20040;-50
2023/10/01 10:07:22;;;;;;;20.05;7.60;;;18.70;99.90;;;;;;5090926;28;20028;-48
2023/10/01 10:09:54;;;;;;;23.58;7.85;;;18.80;99.90;;;;;;5094911;28;20040;-51
2023/10/01 10:12:36;;;;;;;19.73;8.07;;;18.90;99.90;;;;;;5094904;28;20051;-48
2023/10/01 10:15:02;;;;;;;22.50;8.13;;;19.00;99.90;;;;;;5093778;28;20048;-50
2023/10/01 10:17:58;;;;;;;20.95;7.82;;;19.20;99.90;;;;;;5095072;28;20048;-48
2023/10/01 10:20:30;;;;;;;16.30;7.53;;;19.40;99.90;;;;;;5094608;28;20040;-50
2023/10/01 10:23:16;;;;;;;17.10;7.70;;;19.50;99.90;;;;;;5094315;28;20032;-51
2023/10/01 10:25:43;;;;;;;24.90;8.68;;;19.70;99.90;;;;;;5094866;28;20100;-49
2023/10/01 10:28:26;;;;;;;16.73;6.90;;;19.80;99.90;;;;;;5094471;28;20570;-51
2023/10/01 10:31:29;;;;;;;20.50;7.82;;;19.80;99.90;;;;;;5081840;28;20519;-50
2023/10/01 10:34:24;;;;;;;22.35;8.00;;;19.80;99.90;;;;;;5094197;28;20071;-50
2023/10/01 10:36:54;;;;;;;17.27;7.85;;;19.80;99.90;;;;;;5094373;28;20044;-49
2023/10/01 10:39:49;;;;;;;17.20;7.10;;;19.90;99.90;;;;;;5094376;28;20040;-50
2023/10/01 10:42:30;;;;;;;18.92;8.48;;;19.90;99.90;;;;;;5093703;28;20032;-48
2023/10/01 10:45:21;;;;;;;21.25;8.73;;;19.90;99.90;;;;;;5094193;28;20051;-48
2023/10/01 10:47:59;;;;;;;21.08;8.52;;;19.80;99.90;;;;;;5080278;28;20098;-51
2023/10/01 10:50:48;;;;;;;19.03;8.90;;;19.70;99.90;;;;;;5093503;28;20054;-49
2023/10/01 10:53:21;;;;;;;21.40;8.55;;;19.70;99.90;;;;;;5094164;28;20389;-50
2023/10/01 10:56:10;;;;;;;17.40;7.68;;;19.60;99.90;;;;;;5094058;28;20040;-47
2023/10/01 10:58:53;;;;;;;18.70;8.25;;;19.50;99.90;;;;;;5094319;28;20040;-50
2023/10/01 11:01:22;;;;;;;17.88;8.05;;;19.50;99.90;;;;;;5075073;28;20123;-50
2023/10/01 11:04:00;;;;;;;16.98;8.15;;;19.60;99.90;;;;;;5075110;28;20043;-50
2023/10/01 11:06:42;;;;;;;15.50;7.80;;;19.60;99.90;;;;;;5093459;28;20032;-48
2023/10/01 11:09:24;;;;;;;18.08;7.93;;;19.60;99.90;;;;;;5076073;28;20036;-49
2023/10/01 11:12:04;;;;;;;17.25;8.52;;;19.60;99.90;;;;;;5093576;28;20186;-52
2023/10/01 11:14:37;;;;;;;19.85;7.90;;;19.70;99.90;;;;;;5093157;28;20063;-48
2023/10/01 11:17:09;;;;;;;17.40;8.38;;;19.60;99.90;;;;;;5075556;28;20044;-49
2023/10/01 11:19:37;;;;;;;16.48;7.60;;;19.70;99.90;;;;;;5092520;28;20139;-52
2023/10/01 11:22:05;;;;;;;;;;;19.70;99.90;;;;;;5075178;28;20393;-49
2023/10/01 11:24:37;;;;;;;16.23;7.70;;;19.70;99.90;;;;;;5093604;28;20422;-48
2023/10/01 11:27:26;;;;;;;21.15;7.63;;;19.80;99.90;;;;;;5070071;28;20044;-48
2023/10/01 11:30:13;;;;;;;19.10;8.20;;;19.90;99.90;;;;;;5092693;28;20100;-51
2023/10/01 11:35:35;;;;;;;20.38;8.82;;;20.00;99.90;;;;;;5079699;28;20082;-50
2023/10/01 11:38:13;;;;;;;19.65;8.20;;;20.10;99.90;;;;;;5074756;28;20075;-50
2023/10/01 11:43:35;;;;;;;18.75;7.97;;;20.20;99.90;;;;;;5092833;28;20042;-53
2023/10/01 11:46:23;;;;;;;20.63;8.88;;;20.20;99.90;;;;;;5093203;28;20101;-50
2023/10/01 11:48:57;;;;;;;17.58;8.05;;;20.20;99.90;;;;;;5093159;28;20085;-49
2023/10/01 11:51:48;;;;;;;22.13;7.70;;;20.20;99.90;;;;;;5075973;28;20385;-49
2023/10/01 11:54:25;;;;;;;16.60;7.28;;;20.30;99.90;;;;;;5084644;28;20098;-51
2023/10/01 11:57:04;;;;;;;14.07;8.15;;;20.30;99.90;;;;;;5092984;28;20520;-52
2023/10/01 11:59:34;;;;;;;17.80;7.80;;;20.30;99.90;;;;;;5080695;28;20115;-48
2023/10/01 12:02:21;;;;;;;20.65;8.07;;;20.30;99.90;;;;;;5092794;28;20119;-47
2023/10/01 12:04:56;;;;;;;15.10;7.18;;;20.30;99.90;;;;;;5074087;28;20079;-50
2023/10/01 12:07:27;;;;;;;18.75;7.78;;;20.30;99.90;;;;;;5092821;28;20036;-47
2023/10/01 12:09:55;;;;;;;15.95;7.85;;;20.30;99.90;;;;;;5075271;28;20044;-51
2023/10/01 12:12:28;;;;;;;17.75;8.02;;;20.30;99.90;;;;;;5092147;28;20059;-48
2023/10/01 12:17:47;;;;;;;15.65;7.32;;;20.40;99.90;;;;;;5030109;28;20116;-49
2023/10/01 12:20:23;;;;;;;17.05;8.02;;;20.40;99.90;;;;;;5029696;28;20056;-51
2023/10/01 12:23:10;;;;;;;19.48;8.73;;;20.40;99.90;;;;;;5029891;28;20161;-50
2023/10/01 12:25:52;;;;;;;20.95;8.68;;;20.50;99.90;;;;;;5029951;28;20400;-52
2023/10/01 12:28:29;;;;;;;15.85;8.45;;;20.50;99.90;;;;;;5029985;28;20499;-49
2023/10/01 12:30:58;;;;;;;17.30;7.82;;;20.50;99.90;;;;;;5030134;28;20041;-49
2023/10/01 12:33:38;;;;;;;17.58;8.02;;;20.50;99.90;;;;;;5030092;28;20037;-51
2023/10/01 12:41:48;;;;;;;16.92;7.90;;;20.50;99.90;;;;;;4970899;28;20035;-52
2023/10/01 12:44:34;;;;;;;13.52;6.78;;;20.50;99.90;;;;;;4970876;28;20489;-51
2023/10/01 12:47:02;;;;;;;15.65;8.25;;;20.60;99.90;;;;;;4965276;28;20578;-48
2023/10/01 12:49:34;;;;;;;15.88;8.55;;;20.70;99.90;;;;;;4970960;28;20050;-49
2023/10/01 12:52:02;;;;;;;16.02;7.95;;;20.80;99.90;;;;;;4970691;28;20126;-50
2023/10/01 12:54:36;;;;;;;20.75;9.20;;;20.80;99.90;;;;;;4989491;28;20041;-49
2023/10/01 12:57:09;;;;;;;14.40;7.43;;;20.90;99.90;;;;;;5029276;28;20041;-51
2023/10/01 12:59:41;;;;;;;20.02;8.80;;;20.90;99.90;;;;;;5029467;28;20112;-51
2023/10/01 13:02:28;;;;;;;18.20;8.32;;;20.90;99.90;;;;;;5029483;28;20127;-53
2023/10/01 13:05:20;;;;;;;17.88;7.82;;;21.00;99.90;;;;;;5029469;28;20479;-51
2023/10/01 13:07:48;;;;;;;18.60;8.48;;;21.00;99.90;;;;;;5029029;28;20108;-49
2023/10/01 13:10:16;;;;;;;17.50;8.10;;;21.00;99.90;;;;;;5012561;28;20115;-53
2023/10/01 13:13:01;;;;;;;17.08;9.23;;;21.00;99.90;;;;;;5041044;28;20045;-51
2023/10/01 13:15:37;;;;;;;19.95;8.65;;;21.00;99.90;;;;;;5049239;28;20084;-53
2023/10/01 13:18:18;;;;;;;19.92;9.35;;;21.00;99.90;;;;;;5062102;28;20046;-49
2023/10/01 13:23:28;;;;;;;18.75;9.05;;;21.00;99.90;;;;;;5112067;28;20039;-48
2023/10/01 13:29:00;;;;;;;17.20;8.48;;;21.00;99.90;;;;;;5047950;28;20131;-51
2023/10/01 13:34:10;;;;;;;18.45;9.18;;;21.10;99.90;;;;;;5048985;28;19971;-50
2023/10/01 13:39:44;;;;;;;20.30;8.45;;;21.10;99.90;;;;;;5042935;28;20045;-51
2023/10/01 14:09:52;;;;;;;20.25;9.95;;;21.10;99.90;;;;;;5110904;28;20052;-52
2023/10/01 14:15:26;;;;;;;20.30;9.35;;;21.10;99.90;;;;;;5115200;28;20035;-52
2023/10/01 14:17:55;;;;;;;19.55;8.88;;;21.10;99.90;;;;;;5096773;28;20062;-53
2023/10/01 14:23:26;;;;;;;18.60;9.77;;;21.00;99.90;;;;;;5115136;28;20486;-49
2023/10/01 14:26:11;;;;;;;25.00;9.50;;;21.00;99.90;;;;;;5103746;28;20137;-56
2023/10/01 14:28:46;;;;;;;21.85;9.65;;;21.00;99.90;;;;;;5114964;28;20447;-52
2023/10/01 14:31:19;;;;;;;21.58;9.70;;;21.00;99.90;;;;;;5115220;28;20401;-53
2023/10/01 14:33:46;;;;;;;18.02;9.40;;;21.00;99.90;;;;;;5114874;28;20047;-48
2023/10/01 14:36:14;;;;;;;16.40;8.95;;;21.00;99.90;;;;;;5115067;28;20533;-50